Aérodrome :
LOGIN :

S'inscrire | Disclaimer

   EN    FR    IT 

 










Légende :    VFR   VFR Marginal   IFR   IFR Intensif   IFR Très Intensif
Visi : 
Plafond : 
>= 8 km
>= 3000ft
5 à 8 km
1000 à 3000 ft
1500m à 5 km
500 à 1000 ft
800 à 1500m
200 à 500 ft
< 800m
< 200 ft
Symboles :   Orages  Brouillard  Fortes neiges  Fortes précipitations  Vent > 20 kt
SIGMETs :   Divers  Orages  Givrage  Turbulence  Onde Orograph.  Cendres Volcan.






- Altitude de l'aérodrome : 383 ft
- Code IATA : UDJ


UKLU - Uzhhorod

DERNIER METAR :
  • 211600Z 00000MPS 9999 -RA OVC010 01/01 Q1021 R10/290255 NOSIG

METARs EXPIRÉS :
  • 211530Z 00000MPS 6000 -RA OVC010 01/01 Q1020 R10/290255 NOSIG
  • 211500Z 09001MPS 4500 -RASN BR OVC010 01/01 Q1020 R10/290255 NOSIG
  • 211430Z 09003MPS 4400 -RASN BR OVC010 01/00 Q1020 R10/290255 NOSIG
  • 211400Z 11003MPS 060V190 5000 -RASN BR OVC006 01/00 Q1020 R10/290255 NOSIG
  • 211330Z 11002MPS 040V160 4700 -RASN BR OVC006 01/00 Q1020 R10/290255 NOSIG

TAF TAF UKLU
Valide du 21 à 15h jusqu'au 22 à 00h UTC


211404Z 2115/2124 12005MPS 3000 BR OVC033 TX01/2115Z TN00/2121Z
TEMPO 2115/2121 22007G12MPS 1500 -SHRASN BR BKN007 SCT015CB



MET'MAP, la Météo Aéronautique d'un coup d'oeil ! - Copyright ORBIFLY Décembre 2007 - Disclaimer

ORBIFLY MET'MAP TEAM :

Programmation & Développement : Alexandra Zaïnal
Sur une idée originale de : Baudouin d'Aumeries
Assistance à la programmation : Marc-Olivier Méhu
Soutien technique & logistique : Manuel Goepfert

Contact : metmap@orbifly.com




SOURCES & CREDITS :

   NOAA